createdAt,value
2023-04-17T00:11:12.967Z,57.59
2023-04-17T00:29:10.234Z,57.72
2023-04-17T00:34:43.923Z,57.55
2023-04-17T00:45:54.998Z,58.75
2023-04-17T00:51:20.237Z,58.89
2023-04-17T00:56:44.600Z,59.36
2023-04-17T01:02:06.769Z,60.01
2023-04-17T01:07:31.052Z,60.43
2023-04-17T01:13:07.508Z,60.23
2023-04-17T01:18:31.853Z,60.48
2023-04-17T01:23:54.441Z,60.87
2023-04-17T01:29:20.403Z,61.58
2023-04-17T01:34:44.125Z,61.65
2023-04-17T01:40:07.893Z,62.29
2023-04-17T01:45:30.701Z,61.98
2023-04-17T01:50:53.247Z,62.62
2023-04-17T01:56:15.820Z,62.51
2023-04-17T02:01:37.941Z,62.53
2023-04-17T02:07:00.198Z,63.44
2023-04-17T02:12:22.917Z,63.47
2023-04-17T02:17:46.022Z,63.92
2023-04-17T02:23:08.621Z,63.92
2023-04-17T02:28:33.611Z,64.71
2023-04-17T02:33:58.460Z,65.27
2023-04-17T02:39:21.946Z,65.65
2023-04-17T02:44:44.090Z,66.58
2023-04-17T02:50:07.274Z,66.42
2023-04-17T02:55:39.954Z,67.05
2023-04-17T03:01:05.661Z,66.83
2023-04-17T03:06:31.833Z,66.44
2023-04-17T03:11:53.944Z,67.58
2023-04-17T03:17:16.834Z,67.99
2023-04-17T03:22:40.207Z,68.29
2023-04-17T03:28:02.805Z,68.78
2023-04-17T03:33:28.037Z,69.74
2023-04-17T03:38:53.059Z,69.62
2023-04-17T03:44:19.497Z,68.66
2023-04-17T03:49:41.507Z,68.46
2023-04-17T03:55:06.120Z,67.68
2023-04-17T04:00:29.173Z,66.21
2023-04-17T04:05:56.294Z,64.65
2023-04-17T04:11:19.168Z,64.23
2023-04-17T04:16:42.007Z,63.71
2023-04-17T04:22:07.306Z,62.48
2023-04-17T04:27:36.604Z,63.50
2023-04-17T04:33:01.851Z,63.09
2023-04-17T04:38:31.587Z,59.68
2023-04-17T04:44:01.869Z,58.80
2023-04-17T04:49:24.736Z,57.08
2023-04-17T04:54:47.001Z,56.39
2023-04-17T05:00:10.980Z,55.90
2023-04-17T05:05:45.987Z,55.49
2023-04-17T05:11:10.407Z,54.88
2023-04-17T05:16:33.604Z,53.71
2023-04-17T05:21:56.042Z,54.40
2023-04-17T05:27:18.991Z,53.93
2023-04-17T05:32:41.607Z,52.58
2023-04-17T05:38:23.448Z,50.64
2023-04-17T05:43:45.773Z,49.69
2023-04-17T05:49:07.989Z,48.27
2023-04-17T05:54:31.002Z,47.39
2023-04-17T05:59:53.531Z,45.26
2023-04-17T06:05:16.955Z,44.07
2023-04-17T06:10:40.357Z,42.53
2023-04-17T06:16:02.786Z,42.15
2023-04-17T06:21:25.037Z,41.92
2023-04-17T06:26:46.939Z,40.77
2023-04-17T06:32:09.487Z,39.37
2023-04-17T06:37:33.182Z,38.90
2023-04-17T06:42:55.647Z,39.03
2023-04-17T06:48:22.259Z,38.94
2023-04-17T06:53:44.476Z,38.98
2023-04-17T06:59:06.665Z,38.90
2023-04-17T07:04:28.766Z,37.78
2023-04-17T07:09:50.642Z,37.84
2023-04-17T07:15:13.429Z,37.53
2023-04-17T07:20:35.698Z,36.51
2023-04-17T07:25:57.446Z,36.17
2023-04-17T07:31:19.846Z,36.94
2023-04-17T07:36:41.984Z,35.84
2023-04-17T07:42:07.973Z,36.21
2023-04-17T07:47:31.486Z,35.89
2023-04-17T07:52:57.488Z,35.25
2023-04-17T07:58:20.118Z,36.05
2023-04-17T08:03:42.166Z,34.96
2023-04-17T08:09:05.488Z,34.14
2023-04-17T08:14:27.757Z,34.27
2023-04-17T08:19:59.291Z,34.44
2023-04-17T08:25:21.379Z,34.08
2023-04-17T08:30:43.170Z,34.70
2023-04-17T08:36:08.415Z,32.93
2023-04-17T08:41:38.949Z,32.29
2023-04-17T08:47:01.388Z,31.38
2023-04-17T08:52:23.246Z,32.44
2023-04-17T08:57:58.533Z,30.95
2023-04-17T09:03:22.646Z,31.89
2023-04-17T09:09:02.282Z,32.00
2023-04-17T09:14:31.463Z,31.53
2023-04-17T09:20:12.606Z,31.16
2023-04-17T09:25:34.833Z,31.03
2023-04-17T09:30:58.557Z,31.05
2023-04-17T09:36:24.840Z,31.54
2023-04-17T09:41:49.588Z,31.55
2023-04-17T09:47:13.624Z,30.95
2023-04-17T09:52:35.931Z,31.58
2023-04-17T09:58:00.270Z,31.84
2023-04-17T10:03:24.887Z,32.79
2023-04-17T10:08:47.614Z,33.37
2023-04-17T10:14:24.354Z,33.22
2023-04-17T10:19:46.436Z,34.30
2023-04-17T10:25:14.756Z,34.31
2023-04-17T10:30:59.405Z,34.77
2023-04-17T10:36:50.556Z,33.89
2023-04-17T10:42:29.048Z,34.23
2023-04-17T10:47:59.251Z,34.14
2023-04-17T10:53:40.974Z,34.44
2023-04-17T10:59:05.573Z,32.61
2023-04-17T11:04:32.547Z,34.25
2023-04-17T11:09:54.906Z,34.00
2023-04-17T11:15:17.350Z,33.57
2023-04-17T11:20:39.432Z,33.63
2023-04-17T11:26:01.491Z,34.39
2023-04-17T11:31:23.946Z,34.03
2023-04-17T11:36:57.635Z,33.82
2023-04-17T11:42:28.836Z,34.54
2023-04-17T11:47:52.978Z,34.20
2023-04-17T11:53:17.063Z,33.64
2023-04-17T11:58:53.219Z,33.67
2023-04-17T12:04:22.592Z,34.13
2023-04-17T12:09:57.288Z,34.24
2023-04-17T12:15:19.699Z,33.31
2023-04-17T12:20:41.543Z,33.22
2023-04-17T12:26:03.841Z,33.71
2023-04-17T12:31:26.093Z,33.57
2023-04-17T12:36:50.980Z,34.26
2023-04-17T12:42:13.549Z,33.60
2023-04-17T12:47:35.821Z,33.83
2023-04-17T12:52:57.941Z,33.34
2023-04-17T12:58:20.041Z,32.00
2023-04-17T13:03:42.408Z,32.12
2023-04-17T13:09:05.432Z,31.65
2023-04-17T13:14:27.650Z,32.04
2023-04-17T13:19:49.741Z,31.77
2023-04-17T13:25:13.539Z,31.64
2023-04-17T13:30:37.610Z,32.05
2023-04-17T13:36:02.214Z,32.10
2023-04-17T13:41:26.564Z,32.57
2023-04-17T13:46:49.441Z,32.48
2023-04-17T13:52:11.788Z,32.12
2023-04-17T13:57:33.375Z,31.54
2023-04-17T14:02:55.881Z,31.25
2023-04-17T14:08:21.394Z,31.18
2023-04-17T14:13:43.323Z,30.94
2023-04-17T14:19:13.185Z,31.50
2023-04-17T14:24:36.398Z,31.31
2023-04-17T14:30:00.622Z,31.53
2023-04-17T14:35:25.987Z,31.77
2023-04-17T14:40:47.944Z,31.73
2023-04-17T14:46:09.864Z,32.27
2023-04-17T14:51:40.367Z,32.36
2023-04-17T14:57:08.299Z,32.47
2023-04-17T15:02:39.005Z,32.64
2023-04-17T15:08:01.409Z,32.65
2023-04-17T15:13:23.175Z,33.04
2023-04-17T15:18:45.149Z,33.40
2023-04-17T15:24:07.409Z,33.65
2023-04-17T15:29:29.342Z,33.89
2023-04-17T15:34:51.564Z,34.16
2023-04-17T15:40:13.487Z,34.37
2023-04-17T15:45:35.577Z,34.44
2023-04-17T15:56:50.491Z,34.71
2023-04-17T16:08:49.344Z,35.22
2023-04-17T16:20:02.628Z,35.43
2023-04-17T16:25:29.225Z,35.79
2023-04-17T16:31:09.129Z,36.15
2023-04-17T16:36:33.202Z,36.05
2023-04-17T16:41:56.758Z,36.54
2023-04-17T16:47:19.057Z,36.86
2023-04-17T16:52:41.717Z,36.94
2023-04-17T16:58:04.879Z,37.38
2023-04-17T17:03:26.701Z,38.01
2023-04-17T17:08:49.051Z,38.66
2023-04-17T17:14:11.418Z,38.97
2023-04-17T17:19:33.534Z,39.35
2023-04-17T17:24:56.625Z,39.70
2023-04-17T17:30:18.867Z,40.09
2023-04-17T17:35:40.569Z,40.31
2023-04-17T17:41:02.596Z,40.57
2023-04-17T17:52:16.182Z,41.74
2023-04-17T17:57:48.421Z,42.11
2023-04-17T18:03:11.718Z,42.40
2023-04-17T18:08:33.389Z,42.31
2023-04-17T18:13:56.321Z,42.46
2023-04-17T18:19:20.843Z,42.49
2023-04-17T18:24:43.173Z,43.21
2023-04-17T18:30:07.145Z,43.88
2023-04-17T18:35:31.265Z,43.80
2023-04-17T18:41:02.101Z,44.45
2023-04-17T18:46:26.981Z,44.28
2023-04-17T18:51:49.614Z,45.18
2023-04-17T18:57:12.025Z,45.27
2023-04-17T19:02:37.703Z,45.97
2023-04-17T19:07:59.561Z,46.33
2023-04-17T19:13:21.719Z,46.59
2023-04-17T19:18:43.826Z,46.78
2023-04-17T19:24:06.345Z,47.79
2023-04-17T19:29:28.661Z,48.53
2023-04-17T19:34:50.523Z,49.03
2023-04-17T19:40:24.430Z,49.28
2023-04-17T19:45:47.691Z,50.03
2023-04-17T19:51:09.943Z,49.68
2023-04-17T19:56:34.912Z,49.78
2023-04-17T20:01:56.869Z,49.48
2023-04-17T20:07:18.875Z,49.55
2023-04-17T20:12:40.472Z,50.19
2023-04-17T20:18:02.359Z,51.27
2023-04-17T20:23:24.437Z,51.47
2023-04-17T20:28:46.532Z,50.90
2023-04-17T20:34:08.690Z,50.53
2023-04-17T20:39:30.925Z,50.46
2023-04-17T20:44:52.561Z,50.88
2023-04-17T20:50:14.563Z,51.54
2023-04-17T20:55:40.171Z,51.21
2023-04-17T21:01:03.318Z,51.30
2023-04-17T21:06:25.244Z,51.67
2023-04-17T21:11:47.293Z,51.59
2023-04-17T21:17:09.183Z,52.01
2023-04-17T21:22:31.418Z,52.09
2023-04-17T21:27:53.835Z,52.46
2023-04-17T21:33:15.551Z,52.62
2023-04-17T21:38:37.831Z,53.09
2023-04-17T21:44:04.399Z,53.50
2023-04-17T21:49:26.477Z,53.73
2023-04-17T21:54:48.381Z,53.86
2023-04-17T22:00:13.067Z,53.74
2023-04-17T22:05:35.176Z,53.92
2023-04-17T22:10:57.241Z,53.68
2023-04-17T22:16:18.717Z,54.30
2023-04-17T22:21:40.694Z,54.79
2023-04-17T22:27:03.237Z,55.22
2023-04-17T22:32:25.453Z,55.89
2023-04-17T22:37:47.503Z,56.13
2023-04-17T22:43:09.867Z,56.21
2023-04-17T22:48:31.704Z,56.45
2023-04-17T22:53:53.600Z,57.00
2023-04-17T22:59:15.641Z,57.14
2023-04-17T23:04:39.936Z,57.31
2023-04-17T23:10:01.998Z,56.97
2023-04-17T23:15:25.115Z,57.76
2023-04-17T23:20:47.196Z,57.74
2023-04-17T23:26:09.433Z,58.26
2023-04-17T23:31:31.354Z,58.59
2023-04-17T23:36:53.234Z,58.67
2023-04-17T23:42:16.554Z,58.69
2023-04-17T23:48:04.150Z,59.04
2023-04-17T23:53:26.147Z,59.34
2023-04-17T23:58:48.092Z,59.92
